sensor_id;sensor_type;location;lat;lon;timestamp;P1;durP1;ratioP1;P2;durP2;ratioP2
673;SDS011;319;48.764;9.174;2024-03-02T00:01:36;1.80;;;1.80;;
673;SDS011;319;48.764;9.174;2024-03-02T00:04:04;1.97;;;1.97;;
673;SDS011;319;48.764;9.174;2024-03-02T00:06:32;1.90;;;1.90;;
673;SDS011;319;48.764;9.174;2024-03-02T00:08:59;1.90;;;1.90;;
673;SDS011;319;48.764;9.174;2024-03-02T00:11:26;1.90;;;1.90;;
673;SDS011;319;48.764;9.174;2024-03-02T00:13:53;1.77;;;1.77;;
673;SDS011;319;48.764;9.174;2024-03-02T00:16:21;1.90;;;1.90;;
673;SDS011;319;48.764;9.174;2024-03-02T00:18:49;2.00;;;2.00;;
673;SDS011;319;48.764;9.174;2024-03-02T00:21:16;1.87;;;1.87;;
673;SDS011;319;48.764;9.174;2024-03-02T00:23:45;1.90;;;1.90;;
673;SDS011;319;48.764;9.174;2024-03-02T00:26:12;1.90;;;1.90;;
673;SDS011;319;48.764;9.174;2024-03-02T00:28:40;1.90;;;1.90;;
673;SDS011;319;48.764;9.174;2024-03-02T00:31:09;1.67;;;1.67;;
673;SDS011;319;48.764;9.174;2024-03-02T00:33:40;1.87;;;1.87;;
673;SDS011;319;48.764;9.174;2024-03-02T00:36:08;1.60;;;1.60;;
673;SDS011;319;48.764;9.174;2024-03-02T00:38:42;1.90;;;1.90;;
673;SDS011;319;48.764;9.174;2024-03-02T00:41:15;2.00;;;2.00;;
673;SDS011;319;48.764;9.174;2024-03-02T00:43:49;1.90;;;1.90;;
673;SDS011;319;48.764;9.174;2024-03-02T00:46:23;1.70;;;1.70;;
673;SDS011;319;48.764;9.174;2024-03-02T00:48:55;1.70;;;1.70;;
673;SDS011;319;48.764;9.174;2024-03-02T00:51:24;1.77;;;1.77;;
673;SDS011;319;48.764;9.174;2024-03-02T00:53:52;1.77;;;1.77;;
673;SDS011;319;48.764;9.174;2024-03-02T00:56:21;2.00;;;2.00;;
673;SDS011;319;48.764;9.174;2024-03-02T00:58:49;1.80;;;1.80;;
673;SDS011;319;48.764;9.174;2024-03-02T01:01:16;2.00;;;2.00;;
673;SDS011;319;48.764;9.174;2024-03-02T01:03:43;1.70;;;1.70;;
673;SDS011;319;48.764;9.174;2024-03-02T01:06:11;1.60;;;1.60;;
673;SDS011;319;48.764;9.174;2024-03-02T01:08:38;1.90;;;1.90;;
673;SDS011;319;48.764;9.174;2024-03-02T01:11:05;1.80;;;1.80;;
673;SDS011;319;48.764;9.174;2024-03-02T01:13:33;1.70;;;1.70;;
673;SDS011;319;48.764;9.174;2024-03-02T01:16:00;1.80;;;1.80;;
673;SDS011;319;48.764;9.174;2024-03-02T01:18:27;1.80;;;1.80;;
673;SDS011;319;48.764;9.174;2024-03-02T01:20:54;1.80;;;1.80;;
673;SDS011;319;48.764;9.174;2024-03-02T01:23:23;1.80;;;1.80;;
673;SDS011;319;48.764;9.174;2024-03-02T01:25:50;1.93;;;1.93;;
673;SDS011;319;48.764;9.174;2024-03-02T01:28:18;1.90;;;1.90;;
673;SDS011;319;48.764;9.174;2024-03-02T01:30:45;1.80;;;1.80;;
673;SDS011;319;48.764;9.174;2024-03-02T01:33:12;1.80;;;1.80;;
673;SDS011;319;48.764;9.174;2024-03-02T01:35:40;1.67;;;1.67;;
673;SDS011;319;48.764;9.174;2024-03-02T01:38:07;1.80;;;1.80;;
673;SDS011;319;48.764;9.174;2024-03-02T01:40:35;1.80;;;1.80;;
673;SDS011;319;48.764;9.174;2024-03-02T01:43:03;1.80;;;1.80;;
673;SDS011;319;48.764;9.174;2024-03-02T01:45:30;1.87;;;1.87;;
673;SDS011;319;48.764;9.174;2024-03-02T01:47:58;1.90;;;1.90;;
673;SDS011;319;48.764;9.174;2024-03-02T01:50:26;1.77;;;1.77;;
673;SDS011;319;48.764;9.174;2024-03-02T01:52:54;1.90;;;1.90;;
673;SDS011;319;48.764;9.174;2024-03-02T01:55:21;1.80;;;1.80;;
673;SDS011;319;48.764;9.174;2024-03-02T01:57:50;1.80;;;1.80;;
673;SDS011;319;48.764;9.174;2024-03-02T02:00:18;1.70;;;1.70;;
673;SDS011;319;48.764;9.174;2024-03-02T02:02:45;1.80;;;1.80;;
673;SDS011;319;48.764;9.174;2024-03-02T02:05:13;1.60;;;1.60;;
673;SDS011;319;48.764;9.174;2024-03-02T02:07:40;1.80;;;1.80;;
673;SDS011;319;48.764;9.174;2024-03-02T02:10:08;1.80;;;1.80;;
673;SDS011;319;48.764;9.174;2024-03-02T02:12:35;1.90;;;1.90;;
673;SDS011;319;48.764;9.174;2024-03-02T02:15:04;1.80;;;1.80;;
673;SDS011;319;48.764;9.174;2024-03-02T02:17:51;1.57;;;1.57;;
673;SDS011;319;48.764;9.174;2024-03-02T02:20:18;1.50;;;1.50;;
673;SDS011;319;48.764;9.174;2024-03-02T02:22:59;1.80;;;1.80;;
673;SDS011;319;48.764;9.174;2024-03-02T02:25:29;1.70;;;1.70;;
673;SDS011;319;48.764;9.174;2024-03-02T02:27:59;1.60;;;1.60;;
673;SDS011;319;48.764;9.174;2024-03-02T02:30:26;1.40;;;1.40;;
673;SDS011;319;48.764;9.174;2024-03-02T02:32:54;1.40;;;1.40;;
673;SDS011;319;48.764;9.174;2024-03-02T02:35:21;1.43;;;1.43;;
673;SDS011;319;48.764;9.174;2024-03-02T02:37:49;1.50;;;1.50;;
673;SDS011;319;48.764;9.174;2024-03-02T02:40:18;1.57;;;1.57;;
673;SDS011;319;48.764;9.174;2024-03-02T02:42:45;1.23;;;1.23;;
673;SDS011;319;48.764;9.174;2024-03-02T02:45:12;1.50;;;1.50;;
673;SDS011;319;48.764;9.174;2024-03-02T02:47:39;1.30;;;1.30;;
673;SDS011;319;48.764;9.174;2024-03-02T02:50:07;1.43;;;1.43;;
673;SDS011;319;48.764;9.174;2024-03-02T02:52:34;1.30;;;1.30;;
673;SDS011;319;48.764;9.174;2024-03-02T02:55:04;1.30;;;1.30;;
673;SDS011;319;48.764;9.174;2024-03-02T02:57:34;1.40;;;1.40;;
673;SDS011;319;48.764;9.174;2024-03-02T03:00:05;1.50;;;1.50;;
673;SDS011;319;48.764;9.174;2024-03-02T03:02:39;1.40;;;1.40;;
673;SDS011;319;48.764;9.174;2024-03-02T03:05:07;1.30;;;1.30;;
673;SDS011;319;48.764;9.174;2024-03-02T03:07:34;1.40;;;1.40;;
673;SDS011;319;48.764;9.174;2024-03-02T03:10:02;1.30;;;1.30;;
673;SDS011;319;48.764;9.174;2024-03-02T03:12:31;1.30;;;1.30;;
673;SDS011;319;48.764;9.174;2024-03-02T03:15:00;1.40;;;1.40;;
673;SDS011;319;48.764;9.174;2024-03-02T03:17:30;1.30;;;1.30;;
673;SDS011;319;48.764;9.174;2024-03-02T03:20:03;1.20;;;1.20;;
673;SDS011;319;48.764;9.174;2024-03-02T03:22:34;1.50;;;1.50;;
673;SDS011;319;48.764;9.174;2024-03-02T03:25:02;1.40;;;1.40;;
673;SDS011;319;48.764;9.174;2024-03-02T03:27:29;1.30;;;1.30;;
673;SDS011;319;48.764;9.174;2024-03-02T03:29:58;1.30;;;1.30;;
673;SDS011;319;48.764;9.174;2024-03-02T03:32:25;1.47;;;1.47;;
673;SDS011;319;48.764;9.174;2024-03-02T03:34:52;1.30;;;1.30;;
673;SDS011;319;48.764;9.174;2024-03-02T03:37:19;1.40;;;1.40;;
673;SDS011;319;48.764;9.174;2024-03-02T03:39:46;1.30;;;1.30;;
673;SDS011;319;48.764;9.174;2024-03-02T03:42:13;1.50;;;1.50;;
673;SDS011;319;48.764;9.174;2024-03-02T03:44:41;1.40;;;1.40;;
673;SDS011;319;48.764;9.174;2024-03-02T03:47:09;1.50;;;1.50;;
673;SDS011;319;48.764;9.174;2024-03-02T03:49:36;1.40;;;1.40;;
673;SDS011;319;48.764;9.174;2024-03-02T03:52:03;1.30;;;1.30;;
673;SDS011;319;48.764;9.174;2024-03-02T03:54:30;1.50;;;1.50;;
673;SDS011;319;48.764;9.174;2024-03-02T03:56:57;1.43;;;1.43;;
673;SDS011;319;48.764;9.174;2024-03-02T03:59:24;1.50;;;1.50;;
673;SDS011;319;48.764;9.174;2024-03-02T04:01:51;1.50;;;1.50;;
673;SDS011;319;48.764;9.174;2024-03-02T04:04:19;1.40;;;1.40;;
673;SDS011;319;48.764;9.174;2024-03-02T04:06:47;1.30;;;1.30;;
673;SDS011;319;48.764;9.174;2024-03-02T04:09:13;1.50;;;1.50;;
673;SDS011;319;48.764;9.174;2024-03-02T04:11:41;1.40;;;1.40;;
673;SDS011;319;48.764;9.174;2024-03-02T04:14:07;1.40;;;1.40;;
673;SDS011;319;48.764;9.174;2024-03-02T04:16:35;1.40;;;1.40;;
673;SDS011;319;48.764;9.174;2024-03-02T04:19:02;1.40;;;1.40;;
673;SDS011;319;48.764;9.174;2024-03-02T04:21:30;1.20;;;1.20;;
673;SDS011;319;48.764;9.174;2024-03-02T04:23:57;1.20;;;1.20;;
673;SDS011;319;48.764;9.174;2024-03-02T04:26:24;1.50;;;1.50;;
673;SDS011;319;48.764;9.174;2024-03-02T04:28:51;1.20;;;1.20;;
673;SDS011;319;48.764;9.174;2024-03-02T04:31:19;1.40;;;1.40;;
673;SDS011;319;48.764;9.174;2024-03-02T04:33:46;1.40;;;1.40;;
673;SDS011;319;48.764;9.174;2024-03-02T04:36:16;1.30;;;1.30;;
673;SDS011;319;48.764;9.174;2024-03-02T04:38:44;1.40;;;1.40;;
673;SDS011;319;48.764;9.174;2024-03-02T04:41:11;1.60;;;1.60;;
673;SDS011;319;48.764;9.174;2024-03-02T04:43:38;1.30;;;1.30;;
673;SDS011;319;48.764;9.174;2024-03-02T04:46:08;1.50;;;1.50;;
673;SDS011;319;48.764;9.174;2024-03-02T04:48:35;1.40;;;1.40;;
673;SDS011;319;48.764;9.174;2024-03-02T04:51:02;1.40;;;1.40;;
673;SDS011;319;48.764;9.174;2024-03-02T04:53:29;1.40;;;1.40;;
673;SDS011;319;48.764;9.174;2024-03-02T04:55:58;1.40;;;1.40;;
673;SDS011;319;48.764;9.174;2024-03-02T04:58:45;1.33;;;1.33;;
673;SDS011;319;48.764;9.174;2024-03-02T05:01:12;1.30;;;1.30;;
673;SDS011;319;48.764;9.174;2024-03-02T05:03:41;1.40;;;1.40;;
673;SDS011;319;48.764;9.174;2024-03-02T05:06:08;1.40;;;1.40;;
673;SDS011;319;48.764;9.174;2024-03-02T05:08:36;1.50;;;1.50;;
673;SDS011;319;48.764;9.174;2024-03-02T05:11:04;1.40;;;1.40;;
673;SDS011;319;48.764;9.174;2024-03-02T05:13:45;1.40;;;1.40;;
673;SDS011;319;48.764;9.174;2024-03-02T05:16:12;1.40;;;1.40;;
673;SDS011;319;48.764;9.174;2024-03-02T05:18:40;1.30;;;1.30;;
673;SDS011;319;48.764;9.174;2024-03-02T05:21:07;1.50;;;1.50;;
673;SDS011;319;48.764;9.174;2024-03-02T05:23:34;1.40;;;1.40;;
673;SDS011;319;48.764;9.174;2024-03-02T05:26:06;1.30;;;1.30;;
673;SDS011;319;48.764;9.174;2024-03-02T05:28:33;1.40;;;1.40;;
673;SDS011;319;48.764;9.174;2024-03-02T05:31:01;1.30;;;1.30;;
673;SDS011;319;48.764;9.174;2024-03-02T05:33:28;1.47;;;1.47;;
673;SDS011;319;48.764;9.174;2024-03-02T05:35:56;1.30;;;1.30;;
673;SDS011;319;48.764;9.174;2024-03-02T05:38:24;1.40;;;1.40;;
673;SDS011;319;48.764;9.174;2024-03-02T05:40:51;1.30;;;1.30;;
673;SDS011;319;48.764;9.174;2024-03-02T05:43:19;1.40;;;1.40;;
673;SDS011;319;48.764;9.174;2024-03-02T05:45:46;1.50;;;1.50;;
673;SDS011;319;48.764;9.174;2024-03-02T05:48:14;1.60;;;1.60;;
673;SDS011;319;48.764;9.174;2024-03-02T05:50:41;1.50;;;1.50;;
673;SDS011;319;48.764;9.174;2024-03-02T05:53:08;1.40;;;1.40;;
673;SDS011;319;48.764;9.174;2024-03-02T05:55:35;1.30;;;1.30;;
673;SDS011;319;48.764;9.174;2024-03-02T05:58:03;1.50;;;1.50;;
673;SDS011;319;48.764;9.174;2024-03-02T06:00:47;1.33;;;1.33;;
673;SDS011;319;48.764;9.174;2024-03-02T06:03:14;1.50;;;1.50;;
673;SDS011;319;48.764;9.174;2024-03-02T06:05:41;1.40;;;1.40;;
673;SDS011;319;48.764;9.174;2024-03-02T06:08:08;1.50;;;1.50;;
673;SDS011;319;48.764;9.174;2024-03-02T06:10:35;1.40;;;1.40;;
673;SDS011;319;48.764;9.174;2024-03-02T06:13:02;1.50;;;1.50;;
673;SDS011;319;48.764;9.174;2024-03-02T06:15:30;1.50;;;1.50;;
673;SDS011;319;48.764;9.174;2024-03-02T06:17:59;1.40;;;1.40;;
673;SDS011;319;48.764;9.174;2024-03-02T06:20:25;1.50;;;1.50;;
673;SDS011;319;48.764;9.174;2024-03-02T06:22:55;1.40;;;1.40;;
673;SDS011;319;48.764;9.174;2024-03-02T06:25:22;1.50;;;1.50;;
673;SDS011;319;48.764;9.174;2024-03-02T06:27:49;1.40;;;1.40;;
673;SDS011;319;48.764;9.174;2024-03-02T06:30:16;1.30;;;1.30;;
673;SDS011;319;48.764;9.174;2024-03-02T06:32:43;1.50;;;1.50;;
673;SDS011;319;48.764;9.174;2024-03-02T06:35:12;1.37;;;1.37;;
673;SDS011;319;48.764;9.174;2024-03-02T06:37:39;1.30;;;1.30;;
673;SDS011;319;48.764;9.174;2024-03-02T06:40:06;1.47;;;1.47;;
673;SDS011;319;48.764;9.174;2024-03-02T06:42:34;1.40;;;1.40;;
673;SDS011;319;48.764;9.174;2024-03-02T06:45:01;1.40;;;1.40;;
673;SDS011;319;48.764;9.174;2024-03-02T06:47:28;1.50;;;1.50;;
673;SDS011;319;48.764;9.174;2024-03-02T06:49:55;1.50;;;1.50;;
673;SDS011;319;48.764;9.174;2024-03-02T06:52:24;1.40;;;1.40;;
673;SDS011;319;48.764;9.174;2024-03-02T06:54:51;1.43;;;1.43;;
673;SDS011;319;48.764;9.174;2024-03-02T06:57:19;1.30;;;1.30;;
673;SDS011;319;48.764;9.174;2024-03-02T06:59:46;1.47;;;1.47;;
673;SDS011;319;48.764;9.174;2024-03-02T07:02:15;1.40;;;1.40;;
673;SDS011;319;48.764;9.174;2024-03-02T07:04:42;1.47;;;1.47;;
673;SDS011;319;48.764;9.174;2024-03-02T07:07:10;1.40;;;1.40;;
673;SDS011;319;48.764;9.174;2024-03-02T07:09:38;1.30;;;1.30;;
673;SDS011;319;48.764;9.174;2024-03-02T07:12:08;1.30;;;1.30;;
673;SDS011;319;48.764;9.174;2024-03-02T07:14:35;1.50;;;1.50;;
673;SDS011;319;48.764;9.174;2024-03-02T07:17:43;1.70;;;1.70;;
673;SDS011;319;48.764;9.174;2024-03-02T07:20:11;1.60;;;1.60;;
673;SDS011;319;48.764;9.174;2024-03-02T07:22:38;1.40;;;1.40;;
673;SDS011;319;48.764;9.174;2024-03-02T07:25:06;1.80;;;1.80;;
673;SDS011;319;48.764;9.174;2024-03-02T07:27:33;2.00;;;2.00;;
673;SDS011;319;48.764;9.174;2024-03-02T07:30:01;1.80;;;1.80;;
673;SDS011;319;48.764;9.174;2024-03-02T07:32:28;1.90;;;1.90;;
673;SDS011;319;48.764;9.174;2024-03-02T07:34:55;1.70;;;1.70;;
673;SDS011;319;48.764;9.174;2024-03-02T07:37:22;2.10;;;2.10;;
673;SDS011;319;48.764;9.174;2024-03-02T07:39:49;1.90;;;1.90;;
673;SDS011;319;48.764;9.174;2024-03-02T07:42:17;2.10;;;2.10;;
673;SDS011;319;48.764;9.174;2024-03-02T07:44:44;2.20;;;2.20;;
673;SDS011;319;48.764;9.174;2024-03-02T07:47:12;1.90;;;1.90;;
673;SDS011;319;48.764;9.174;2024-03-02T07:49:39;2.20;;;2.20;;
673;SDS011;319;48.764;9.174;2024-03-02T07:52:06;2.30;;;2.30;;
673;SDS011;319;48.764;9.174;2024-03-02T07:54:33;2.23;;;2.23;;
673;SDS011;319;48.764;9.174;2024-03-02T07:57:01;2.30;;;2.30;;
673;SDS011;319;48.764;9.174;2024-03-02T07:59:29;2.10;;;2.10;;
673;SDS011;319;48.764;9.174;2024-03-02T08:01:57;2.20;;;2.20;;
673;SDS011;319;48.764;9.174;2024-03-02T08:04:24;2.10;;;2.10;;
673;SDS011;319;48.764;9.174;2024-03-02T08:06:52;2.40;;;2.40;;
673;SDS011;319;48.764;9.174;2024-03-02T08:09:19;2.30;;;2.30;;
673;SDS011;319;48.764;9.174;2024-03-02T08:11:47;2.40;;;2.40;;
673;SDS011;319;48.764;9.174;2024-03-02T08:14:14;2.30;;;2.30;;
673;SDS011;319;48.764;9.174;2024-03-02T08:16:42;2.50;;;2.50;;
673;SDS011;319;48.764;9.174;2024-03-02T08:19:09;2.40;;;2.40;;
673;SDS011;319;48.764;9.174;2024-03-02T08:21:36;2.30;;;2.30;;
673;SDS011;319;48.764;9.174;2024-03-02T08:24:04;2.40;;;2.40;;
673;SDS011;319;48.764;9.174;2024-03-02T08:26:31;2.60;;;2.60;;
673;SDS011;319;48.764;9.174;2024-03-02T08:28:59;2.60;;;2.60;;
673;SDS011;319;48.764;9.174;2024-03-02T08:31:44;2.40;;;2.40;;
673;SDS011;319;48.764;9.174;2024-03-02T08:34:11;2.50;;;2.50;;
673;SDS011;319;48.764;9.174;2024-03-02T08:36:38;2.80;;;2.80;;
673;SDS011;319;48.764;9.174;2024-03-02T08:39:05;2.83;;;2.83;;
673;SDS011;319;48.764;9.174;2024-03-02T08:41:40;2.70;;;2.70;;
673;SDS011;319;48.764;9.174;2024-03-02T08:44:08;2.70;;;2.70;;
673;SDS011;319;48.764;9.174;2024-03-02T08:46:35;2.80;;;2.80;;
673;SDS011;319;48.764;9.174;2024-03-02T08:49:03;3.30;;;3.20;;
673;SDS011;319;48.764;9.174;2024-03-02T08:51:31;3.20;;;3.10;;
673;SDS011;319;48.764;9.174;2024-03-02T08:53:58;4.00;;;3.90;;
673;SDS011;319;48.764;9.174;2024-03-02T08:56:25;5.17;;;5.07;;
673;SDS011;319;48.764;9.174;2024-03-02T08:58:52;7.53;;;7.33;;
673;SDS011;319;48.764;9.174;2024-03-02T09:01:19;1.00;;;1.00;;
673;SDS011;319;48.764;9.174;2024-03-02T09:03:46;1.10;;;1.10;;
673;SDS011;319;48.764;9.174;2024-03-02T09:06:15;1.00;;;1.00;;
673;SDS011;319;48.764;9.174;2024-03-02T09:08:42;1.00;;;1.00;;
673;SDS011;319;48.764;9.174;2024-03-02T09:11:10;16.73;;;16.33;;
673;SDS011;319;48.764;9.174;2024-03-02T09:13:37;17.80;;;17.30;;
673;SDS011;319;48.764;9.174;2024-03-02T09:16:04;17.93;;;17.43;;
673;SDS011;319;48.764;9.174;2024-03-02T09:18:31;20.03;;;19.53;;
673;SDS011;319;48.764;9.174;2024-03-02T09:20:59;19.30;;;18.80;;
673;SDS011;319;48.764;9.174;2024-03-02T09:23:27;17.80;;;17.30;;
673;SDS011;319;48.764;9.174;2024-03-02T09:25:54;17.40;;;16.90;;
673;SDS011;319;48.764;9.174;2024-03-02T09:28:21;1.10;;;1.10;;
673;SDS011;319;48.764;9.174;2024-03-02T09:30:48;1.10;;;1.10;;
673;SDS011;319;48.764;9.174;2024-03-02T09:33:14;0.90;;;0.90;;
673;SDS011;319;48.764;9.174;2024-03-02T09:35:41;1.10;;;1.10;;
673;SDS011;319;48.764;9.174;2024-03-02T09:38:08;1.10;;;1.10;;
673;SDS011;319;48.764;9.174;2024-03-02T09:40:37;1.00;;;1.00;;
673;SDS011;319;48.764;9.174;2024-03-02T09:43:03;1.13;;;1.13;;
673;SDS011;319;48.764;9.174;2024-03-02T09:45:31;1.20;;;1.20;;
673;SDS011;319;48.764;9.174;2024-03-02T09:47:58;1.10;;;1.10;;
673;SDS011;319;48.764;9.174;2024-03-02T09:50:25;1.20;;;1.20;;
673;SDS011;319;48.764;9.174;2024-03-02T09:52:52;1.20;;;1.20;;
673;SDS011;319;48.764;9.174;2024-03-02T09:55:19;1.20;;;1.20;;
673;SDS011;319;48.764;9.174;2024-03-02T09:57:48;1.10;;;1.10;;
673;SDS011;319;48.764;9.174;2024-03-02T10:00:15;1.10;;;1.10;;
673;SDS011;319;48.764;9.174;2024-03-02T10:02:42;1.10;;;1.10;;
673;SDS011;319;48.764;9.174;2024-03-02T10:05:11;1.10;;;1.10;;
673;SDS011;319;48.764;9.174;2024-03-02T10:07:38;1.10;;;1.10;;
673;SDS011;319;48.764;9.174;2024-03-02T10:10:14;1.10;;;1.10;;
673;SDS011;319;48.764;9.174;2024-03-02T10:12:42;1.20;;;1.20;;
673;SDS011;319;48.764;9.174;2024-03-02T10:15:10;1.10;;;1.10;;
673;SDS011;319;48.764;9.174;2024-03-02T10:17:37;1.07;;;1.07;;
673;SDS011;319;48.764;9.174;2024-03-02T10:22:49;1.10;;;1.10;;
673;SDS011;319;48.764;9.174;2024-03-02T10:25:27;1.10;;;1.10;;
673;SDS011;319;48.764;9.174;2024-03-02T10:27:57;1.20;;;1.20;;
673;SDS011;319;48.764;9.174;2024-03-02T10:30:26;1.20;;;1.20;;
673;SDS011;319;48.764;9.174;2024-03-02T10:32:54;1.10;;;1.10;;
673;SDS011;319;48.764;9.174;2024-03-02T10:35:21;1.20;;;1.20;;
673;SDS011;319;48.764;9.174;2024-03-02T10:37:50;1.03;;;1.03;;
673;SDS011;319;48.764;9.174;2024-03-02T10:40:19;1.07;;;1.07;;
673;SDS011;319;48.764;9.174;2024-03-02T10:42:47;1.20;;;1.20;;
673;SDS011;319;48.764;9.174;2024-03-02T10:45:16;1.20;;;1.20;;
673;SDS011;319;48.764;9.174;2024-03-02T10:47:54;1.10;;;1.10;;
673;SDS011;319;48.764;9.174;2024-03-02T10:50:27;1.10;;;1.10;;
673;SDS011;319;48.764;9.174;2024-03-02T10:52:54;1.10;;;1.10;;
673;SDS011;319;48.764;9.174;2024-03-02T10:55:21;1.10;;;1.10;;
673;SDS011;319;48.764;9.174;2024-03-02T10:57:50;1.20;;;1.20;;
673;SDS011;319;48.764;9.174;2024-03-02T11:00:18;1.10;;;1.10;;
673;SDS011;319;48.764;9.174;2024-03-02T11:02:51;1.03;;;1.03;;
673;SDS011;319;48.764;9.174;2024-03-02T11:05:23;1.10;;;1.10;;
673;SDS011;319;48.764;9.174;2024-03-02T11:07:57;1.20;;;1.20;;
673;SDS011;319;48.764;9.174;2024-03-02T11:10:28;1.10;;;1.10;;
673;SDS011;319;48.764;9.174;2024-03-02T11:13:02;1.10;;;1.10;;
673;SDS011;319;48.764;9.174;2024-03-02T11:15:31;1.00;;;1.00;;
673;SDS011;319;48.764;9.174;2024-03-02T11:18:01;1.00;;;1.00;;
673;SDS011;319;48.764;9.174;2024-03-02T11:20:30;1.10;;;1.10;;
673;SDS011;319;48.764;9.174;2024-03-02T11:22:57;1.10;;;1.10;;
673;SDS011;319;48.764;9.174;2024-03-02T11:25:31;1.10;;;1.10;;
673;SDS011;319;48.764;9.174;2024-03-02T11:27:59;1.10;;;1.10;;
673;SDS011;319;48.764;9.174;2024-03-02T11:33:26;1.10;;;1.10;;
673;SDS011;319;48.764;9.174;2024-03-02T11:35:56;1.10;;;1.10;;
673;SDS011;319;48.764;9.174;2024-03-02T11:38:32;1.20;;;1.20;;
673;SDS011;319;48.764;9.174;2024-03-02T11:41:00;1.10;;;1.10;;
673;SDS011;319;48.764;9.174;2024-03-02T11:43:29;1.10;;;1.10;;
673;SDS011;319;48.764;9.174;2024-03-02T11:45:58;1.10;;;1.10;;
673;SDS011;319;48.764;9.174;2024-03-02T11:48:30;1.20;;;1.20;;
673;SDS011;319;48.764;9.174;2024-03-02T11:50:58;1.10;;;1.10;;
673;SDS011;319;48.764;9.174;2024-03-02T11:53:26;1.20;;;1.20;;
673;SDS011;319;48.764;9.174;2024-03-02T11:55:55;1.10;;;1.10;;
673;SDS011;319;48.764;9.174;2024-03-02T11:58:22;1.00;;;1.00;;
673;SDS011;319;48.764;9.174;2024-03-02T12:00:51;1.10;;;1.10;;
673;SDS011;319;48.764;9.174;2024-03-02T12:03:20;1.10;;;1.10;;
673;SDS011;319;48.764;9.174;2024-03-02T12:05:50;1.10;;;1.10;;
673;SDS011;319;48.764;9.174;2024-03-02T12:08:17;1.10;;;1.10;;
673;SDS011;319;48.764;9.174;2024-03-02T12:10:48;1.20;;;1.20;;
673;SDS011;319;48.764;9.174;2024-03-02T12:13:22;1.20;;;1.20;;
673;SDS011;319;48.764;9.174;2024-03-02T12:15:52;1.07;;;1.07;;
673;SDS011;319;48.764;9.174;2024-03-02T12:18:21;1.00;;;1.00;;
673;SDS011;319;48.764;9.174;2024-03-02T12:20:49;1.20;;;1.20;;
673;SDS011;319;48.764;9.174;2024-03-02T12:23:17;1.10;;;1.10;;
673;SDS011;319;48.764;9.174;2024-03-02T12:25:45;1.00;;;1.00;;
673;SDS011;319;48.764;9.174;2024-03-02T12:28:14;1.10;;;1.10;;
673;SDS011;319;48.764;9.174;2024-03-02T12:30:41;1.10;;;1.10;;
673;SDS011;319;48.764;9.174;2024-03-02T12:33:09;1.10;;;1.10;;
673;SDS011;319;48.764;9.174;2024-03-02T12:35:38;1.00;;;1.00;;
673;SDS011;319;48.764;9.174;2024-03-02T12:38:06;1.00;;;1.00;;
673;SDS011;319;48.764;9.174;2024-03-02T12:40:33;1.03;;;1.03;;
673;SDS011;319;48.764;9.174;2024-03-02T12:43:02;1.10;;;1.10;;
673;SDS011;319;48.764;9.174;2024-03-02T12:45:29;1.10;;;1.10;;
673;SDS011;319;48.764;9.174;2024-03-02T12:47:56;1.10;;;1.10;;
673;SDS011;319;48.764;9.174;2024-03-02T12:50:23;1.00;;;1.00;;
673;SDS011;319;48.764;9.174;2024-03-02T12:52:52;1.10;;;1.10;;
673;SDS011;319;48.764;9.174;2024-03-02T12:55:21;1.10;;;1.10;;
673;SDS011;319;48.764;9.174;2024-03-02T12:57:49;1.10;;;1.10;;
673;SDS011;319;48.764;9.174;2024-03-02T13:00:18;0.90;;;0.90;;
673;SDS011;319;48.764;9.174;2024-03-02T13:02:45;1.00;;;1.00;;
673;SDS011;319;48.764;9.174;2024-03-02T13:05:13;1.10;;;1.10;;
673;SDS011;319;48.764;9.174;2024-03-02T13:07:40;1.10;;;1.10;;
673;SDS011;319;48.764;9.174;2024-03-02T13:10:06;1.10;;;1.10;;
673;SDS011;319;48.764;9.174;2024-03-02T13:12:35;1.00;;;1.00;;
673;SDS011;319;48.764;9.174;2024-03-02T13:15:03;1.10;;;1.10;;
673;SDS011;319;48.764;9.174;2024-03-02T13:17:31;1.10;;;1.10;;
673;SDS011;319;48.764;9.174;2024-03-02T13:20:00;1.10;;;1.10;;
673;SDS011;319;48.764;9.174;2024-03-02T13:22:29;0.90;;;0.90;;
673;SDS011;319;48.764;9.174;2024-03-02T13:24:55;1.10;;;1.10;;
673;SDS011;319;48.764;9.174;2024-03-02T13:27:22;1.00;;;1.00;;
673;SDS011;319;48.764;9.174;2024-03-02T13:29:55;1.10;;;1.10;;
673;SDS011;319;48.764;9.174;2024-03-02T13:32:22;0.83;;;0.83;;
673;SDS011;319;48.764;9.174;2024-03-02T13:34:50;0.93;;;0.93;;
673;SDS011;319;48.764;9.174;2024-03-02T13:37:17;1.00;;;1.00;;
673;SDS011;319;48.764;9.174;2024-03-02T13:39:44;1.10;;;1.10;;
673;SDS011;319;48.764;9.174;2024-03-02T13:42:11;0.97;;;0.97;;
673;SDS011;319;48.764;9.174;2024-03-02T13:44:40;1.10;;;1.10;;
673;SDS011;319;48.764;9.174;2024-03-02T13:47:12;1.00;;;1.00;;
673;SDS011;319;48.764;9.174;2024-03-02T13:49:39;1.00;;;1.00;;
673;SDS011;319;48.764;9.174;2024-03-02T13:52:09;1.10;;;1.10;;
673;SDS011;319;48.764;9.174;2024-03-02T13:54:38;1.00;;;1.00;;
673;SDS011;319;48.764;9.174;2024-03-02T13:57:05;1.00;;;1.00;;
673;SDS011;319;48.764;9.174;2024-03-02T13:59:33;1.00;;;1.00;;
673;SDS011;319;48.764;9.174;2024-03-02T14:02:00;1.10;;;1.10;;
673;SDS011;319;48.764;9.174;2024-03-02T14:04:30;1.00;;;1.00;;
673;SDS011;319;48.764;9.174;2024-03-02T14:06:58;1.00;;;1.00;;
673;SDS011;319;48.764;9.174;2024-03-02T14:09:25;1.00;;;1.00;;
673;SDS011;319;48.764;9.174;2024-03-02T14:11:53;1.00;;;1.00;;
673;SDS011;319;48.764;9.174;2024-03-02T14:14:20;0.90;;;0.90;;
673;SDS011;319;48.764;9.174;2024-03-02T14:16:48;1.10;;;1.10;;
673;SDS011;319;48.764;9.174;2024-03-02T14:19:14;1.00;;;1.00;;
673;SDS011;319;48.764;9.174;2024-03-02T14:21:43;1.00;;;1.00;;
673;SDS011;319;48.764;9.174;2024-03-02T14:24:10;1.00;;;1.00;;
673;SDS011;319;48.764;9.174;2024-03-02T14:26:37;1.10;;;1.10;;
673;SDS011;319;48.764;9.174;2024-03-02T14:29:05;1.10;;;1.10;;
673;SDS011;319;48.764;9.174;2024-03-02T14:31:32;1.10;;;1.10;;
673;SDS011;319;48.764;9.174;2024-03-02T14:33:59;1.10;;;1.10;;
673;SDS011;319;48.764;9.174;2024-03-02T14:36:26;1.10;;;1.10;;
673;SDS011;319;48.764;9.174;2024-03-02T14:38:55;1.10;;;1.10;;
673;SDS011;319;48.764;9.174;2024-03-02T14:41:21;1.00;;;1.00;;
673;SDS011;319;48.764;9.174;2024-03-02T14:43:49;1.00;;;1.00;;
673;SDS011;319;48.764;9.174;2024-03-02T14:46:16;1.00;;;1.00;;
673;SDS011;319;48.764;9.174;2024-03-02T14:48:43;0.90;;;0.90;;
673;SDS011;319;48.764;9.174;2024-03-02T14:51:11;0.90;;;0.90;;
673;SDS011;319;48.764;9.174;2024-03-02T14:53:39;1.00;;;1.00;;
673;SDS011;319;48.764;9.174;2024-03-02T14:56:07;1.00;;;1.00;;
673;SDS011;319;48.764;9.174;2024-03-02T14:58:34;1.00;;;1.00;;
673;SDS011;319;48.764;9.174;2024-03-02T15:01:03;1.10;;;1.10;;
673;SDS011;319;48.764;9.174;2024-03-02T15:03:31;1.00;;;1.00;;
673;SDS011;319;48.764;9.174;2024-03-02T15:05:58;1.00;;;1.00;;
673;SDS011;319;48.764;9.174;2024-03-02T15:08:25;1.00;;;1.00;;
673;SDS011;319;48.764;9.174;2024-03-02T15:10:52;1.00;;;1.00;;
673;SDS011;319;48.764;9.174;2024-03-02T15:13:22;1.10;;;1.10;;
673;SDS011;319;48.764;9.174;2024-03-02T15:15:50;1.00;;;1.00;;
673;SDS011;319;48.764;9.174;2024-03-02T15:18:17;1.00;;;1.00;;
673;SDS011;319;48.764;9.174;2024-03-02T15:20:44;1.10;;;1.10;;
673;SDS011;319;48.764;9.174;2024-03-02T15:23:11;1.10;;;1.10;;
673;SDS011;319;48.764;9.174;2024-03-02T15:25:38;1.00;;;1.00;;
673;SDS011;319;48.764;9.174;2024-03-02T15:28:05;1.10;;;1.10;;
673;SDS011;319;48.764;9.174;2024-03-02T15:30:34;1.00;;;1.00;;
673;SDS011;319;48.764;9.174;2024-03-02T15:33:01;1.10;;;1.10;;
673;SDS011;319;48.764;9.174;2024-03-02T15:35:28;1.10;;;1.10;;
673;SDS011;319;48.764;9.174;2024-03-02T15:37:55;1.10;;;1.10;;
673;SDS011;319;48.764;9.174;2024-03-02T15:40:22;1.10;;;1.10;;
673;SDS011;319;48.764;9.174;2024-03-02T15:42:49;1.10;;;1.10;;
673;SDS011;319;48.764;9.174;2024-03-02T15:45:16;1.00;;;1.00;;
673;SDS011;319;48.764;9.174;2024-03-02T15:47:44;1.00;;;1.00;;
673;SDS011;319;48.764;9.174;2024-03-02T15:50:11;0.90;;;0.90;;
673;SDS011;319;48.764;9.174;2024-03-02T15:52:39;1.10;;;1.10;;
673;SDS011;319;48.764;9.174;2024-03-02T15:55:07;1.10;;;1.10;;
673;SDS011;319;48.764;9.174;2024-03-02T15:57:34;1.10;;;1.10;;